Time;durP1;ratioP1;P1;durP2;ratioP2;P2;SDS_P1;SDS_P2;PMS_P1;PMS_P2;Temp;Humidity;BMP_temperature;BMP_pressure;BME280_temperature;BME280_humidity;BME280_pressure;Samples;Min_cycle;Max_cycle;Signal;HPM_P1;HPM_P2
2022/10/22 00:01:29;;;;;;;;;7.00;6.00;;;;;22.09;51.06;100431.46;105535;1282;22729;-55
2022/10/22 00:03:56;;;;;;;;;9.50;8.50;;;;;22.09;51.03;100430.92;105506;1297;21125;-55
2022/10/22 00:06:24;;;;;;;;;7.00;7.00;;;;;22.11;50.95;100430.73;105525;1297;18427;-55
2022/10/22 00:08:51;;;;;;;;;9.50;9.00;;;;;22.11;51.08;100431.10;105475;1275;18459;-56
2022/10/22 00:11:18;;;;;;;;;6.00;6.00;;;;;22.10;51.09;100424.96;105503;1301;22295;-55
2022/10/22 00:13:45;;;;;;;;;7.00;7.00;;;;;22.10;51.11;100427.23;105500;1298;19651;-56
2022/10/22 00:16:13;;;;;;;;;9.00;7.00;;;;;22.09;51.00;100424.73;105494;1288;20375;-55
2022/10/22 00:18:40;;;;;;;;;6.00;6.00;;;;;22.09;51.16;100425.16;105494;1282;19341;-54
2022/10/22 00:21:07;;;;;;;;;7.00;7.00;;;;;22.09;51.27;100422.80;105385;1300;19825;-57
2022/10/22 00:23:35;;;;;;;;;7.00;6.00;;;;;22.10;51.08;100423.02;105415;1288;20145;-55
2022/10/22 00:26:02;;;;;;;;;7.50;7.50;;;;;22.09;51.12;100424.20;105584;1297;19534;-56
2022/10/22 00:28:29;;;;;;;;;7.00;7.00;;;;;22.10;51.04;100421.39;105508;1283;22197;-52
2022/10/22 00:30:56;;;;;;;;;9.00;9.00;;;;;22.09;51.14;100418.73;105525;1297;19998;-57
2022/10/22 00:33:24;;;;;;;;;6.50;5.50;;;;;22.10;51.11;100415.97;105514;1297;21283;-53
2022/10/22 00:35:51;;;;;;;;;5.00;5.00;;;;;22.09;50.98;100416.04;105483;1281;18428;-57
2022/10/22 00:38:18;;;;;;;;;7.00;6.00;;;;;22.09;51.00;100413.48;105630;1289;18852;-55
2022/10/22 00:40:45;;;;;;;;;6.50;6.50;;;;;22.08;51.07;100415.53;105540;1290;22165;-54
2022/10/22 00:43:12;;;;;;;;;7.00;6.00;;;;;22.09;51.22;100412.04;105426;1282;19679;-56
2022/10/22 00:45:40;;;;;;;;;7.00;7.00;;;;;22.09;51.10;100412.73;105568;1297;18732;-56
2022/10/22 00:48:07;;;;;;;;;8.00;6.50;;;;;22.09;51.12;100407.14;105440;1289;22716;-54
2022/10/22 00:50:34;;;;;;;;;8.00;6.00;;;;;22.09;51.10;100402.39;105541;1297;19922;-53
2022/10/22 00:53:01;;;;;;;;;6.00;5.00;;;;;22.09;51.03;100406.92;105488;1291;18698;-54
2022/10/22 00:55:29;;;;;;;;;6.50;6.50;;;;;22.08;51.11;100406.36;105522;1297;19974;-55
2022/10/22 00:57:56;;;;;;;;;6.00;5.50;;;;;22.08;51.25;100407.02;105535;1300;18798;-55
2022/10/22 01:00:23;;;;;;;;;7.00;6.00;;;;;22.08;51.33;100399.77;105519;1298;20052;-57
2022/10/22 01:02:50;;;;;;;;;7.00;7.00;;;;;22.09;50.93;100401.10;105489;1300;19526;-56
2022/10/22 01:05:17;;;;;;;;;5.00;5.00;;;;;22.09;51.29;100392.50;105503;1291;23195;-56
2022/10/22 01:07:45;;;;;;;;;5.00;5.00;;;;;22.08;51.13;100392.30;105486;1291;20021;-56
2022/10/22 01:10:12;;;;;;;;;5.50;5.50;;;;;22.08;51.15;100390.11;105505;1292;19339;-56
2022/10/22 01:12:39;;;;;;;;;6.50;5.00;;;;;22.09;51.39;100392.02;105492;1297;18414;-52
2022/10/22 01:15:06;;;;;;;;;5.00;5.00;;;;;22.08;51.24;100389.02;105436;1275;20230;-55
2022/10/22 01:17:34;;;;;;;;;7.00;7.00;;;;;22.08;51.22;100387.93;105510;1282;19348;-56
2022/10/22 01:20:01;;;;;;;;;6.00;6.00;;;;;22.08;51.36;100389.61;105482;1297;18670;-57
2022/10/22 01:22:28;;;;;;;;;5.50;5.50;;;;;22.07;51.23;100386.66;105489;1297;31160;-57
2022/10/22 01:24:55;;;;;;;;;7.00;6.00;;;;;22.07;51.30;100388.98;105384;1301;21043;-56
2022/10/22 01:27:22;;;;;;;;;5.00;5.00;;;;;22.07;51.34;100384.30;105482;1289;20196;-57
2022/10/22 01:29:50;;;;;;;;;5.00;5.00;;;;;22.08;51.30;100382.31;105481;1300;22379;-55
2022/10/22 01:32:17;;;;;;;;;5.00;5.00;;;;;22.07;51.19;100380.41;105636;1291;20945;-55
2022/10/22 01:34:44;;;;;;;;;6.00;5.00;;;;;22.07;51.14;100381.38;105646;1297;18450;-56
2022/10/22 01:37:12;;;;;;;;;6.00;6.00;;;;;22.07;51.24;100381.54;105591;1275;22894;-56
2022/10/22 01:39:39;;;;;;;;;6.00;6.00;;;;;22.05;51.32;100378.98;105670;1297;20859;-57
2022/10/22 01:42:06;;;;;;;;;9.00;7.50;;;;;22.06;51.35;100381.14;105509;1277;19775;-54
2022/10/22 01:44:33;;;;;;;;;6.00;6.00;;;;;22.05;51.29;100378.70;105569;1298;22268;-55
2022/10/22 01:47:01;;;;;;;;;6.00;6.00;;;;;22.05;51.24;100373.02;105599;1297;22012;-57
2022/10/22 01:49:28;;;;;;;;;6.00;6.00;;;;;22.06;51.16;100368.38;105607;1288;19664;-56
2022/10/22 01:51:55;;;;;;;;;6.00;6.00;;;;;22.05;51.41;100364.10;105641;1294;22475;-56
2022/10/22 01:54:22;;;;;;;;;3.50;3.50;;;;;22.06;51.30;100364.95;105586;1297;21029;-56
2022/10/22 01:56:50;;;;;;;;;;;;;;;22.05;51.26;100364.83;105592;1291;19834;-56
2022/10/22 01:59:17;;;;;;;;;6.00;5.00;;;;;22.05;51.29;100362.49;105548;1297;19891;-53
2022/10/22 02:01:44;;;;;;;;;6.00;6.00;;;;;22.06;51.19;100362.75;105548;1297;19767;-56
2022/10/22 02:04:11;;;;;;;;;4.00;4.00;;;;;22.05;51.19;100360.34;105555;1281;19657;-56
2022/10/22 02:06:39;;;;;;;;;;;;;;;22.06;51.28;100356.33;105536;1291;20058;-54
2022/10/22 02:09:06;;;;;;;;;;;;;;;22.07;51.29;100359.41;105469;1282;22676;-54
2022/10/22 02:11:33;;;;;;;;;6.00;5.00;;;;;22.05;51.32;100362.29;105571;1283;19286;-54
2022/10/22 02:14:00;;;;;;;;;7.00;6.00;;;;;22.05;51.41;100362.08;105518;1284;20283;-55
2022/10/22 02:16:28;;;;;;;;;;;;;;;22.05;51.33;100360.85;105504;1283;20718;-57
2022/10/22 02:18:55;;;;;;;;;5.00;5.00;;;;;22.05;51.16;100360.23;105485;1289;19607;-56
2022/10/22 02:21:22;;;;;;;;;4.00;4.00;;;;;22.05;51.36;100355.18;105497;1293;21087;-58
2022/10/22 02:23:49;;;;;;;;;5.00;5.00;;;;;22.06;51.41;100352.73;105486;1297;19250;-55
2022/10/22 02:26:17;;;;;;;;;5.00;5.00;;;;;22.05;51.40;100347.91;105517;1290;19881;-55
2022/10/22 02:28:44;;;;;;;;;5.00;5.00;;;;;22.05;51.44;100344.23;105615;1301;18758;-55
2022/10/22 02:31:11;;;;;;;;;5.00;5.00;;;;;22.05;51.29;100342.16;105582;1300;22346;-56
2022/10/22 02:33:38;;;;;;;;;7.00;6.00;;;;;22.06;51.37;100343.41;105638;1290;19835;-57
2022/10/22 02:36:06;;;;;;;;;5.00;5.00;;;;;22.05;51.41;100340.73;105627;1289;18593;-56
2022/10/22 02:38:33;;;;;;;;;4.00;4.00;;;;;22.04;51.43;100339.20;105644;1289;22695;-56
2022/10/22 02:41:00;;;;;;;;;6.00;5.00;;;;;22.04;51.46;100339.86;105625;1291;20098;-55
2022/10/22 02:43:27;;;;;;;;;5.00;5.00;;;;;22.05;51.48;100341.95;105665;1288;20414;-55
2022/10/22 02:45:54;;;;;;;;;5.00;5.00;;;;;22.04;51.36;100339.27;105640;1297;19283;-56
2022/10/22 02:48:22;;;;;;;;;6.00;6.00;;;;;22.04;51.42;100335.86;105620;1297;19756;-58
2022/10/22 02:50:49;;;;;;;;;4.00;4.00;;;;;22.04;51.49;100334.26;105594;1288;20052;-56
2022/10/22 02:53:16;;;;;;;;;6.00;5.00;;;;;22.04;51.38;100337.63;105694;1286;20715;-57
2022/10/22 02:55:43;;;;;;;;;5.00;5.00;;;;;22.05;51.36;100338.85;105640;1297;18501;-58
2022/10/22 02:58:12;;;;;;;;;5.00;5.00;;;;;22.05;51.49;100340.31;105576;1297;18524;-53
2022/10/22 03:00:40;;;;;;;;;5.50;5.50;;;;;22.05;51.40;100344.89;105568;1297;19305;-54
2022/10/22 03:03:07;;;;;;;;;6.00;6.00;;;;;22.05;51.42;100348.55;105583;1289;18387;-56
2022/10/22 03:05:34;;;;;;;;;5.00;5.00;;;;;22.05;51.37;100349.77;105700;1289;18600;-56
2022/10/22 03:08:01;;;;;;;;;3.00;3.00;;;;;22.04;51.36;100357.65;105580;1290;22751;-56
2022/10/22 03:10:28;;;;;;;;;7.50;6.00;;;;;22.04;51.48;100363.16;105646;1298;19905;-59
2022/10/22 03:12:56;;;;;;;;;5.00;5.00;;;;;22.04;51.53;100363.86;105618;1282;21232;-56
2022/10/22 03:15:23;;;;;;;;;6.00;6.00;;;;;22.05;51.43;100367.02;105590;1297;19308;-57
2022/10/22 03:17:50;;;;;;;;;5.00;5.00;;;;;22.05;51.27;100362.70;105615;1297;19623;-56
2022/10/22 03:20:17;;;;;;;;;5.00;3.00;;;;;22.03;51.40;100359.62;105605;1298;18542;-56
2022/10/22 03:22:45;;;;;;;;;;;;;;;22.04;51.59;100358.27;105598;1297;19285;-54
2022/10/22 03:25:12;;;;;;;;;3.00;3.00;;;;;22.04;51.42;100366.80;105609;1297;19629;-57
2022/10/22 03:27:39;;;;;;;;;6.00;6.00;;;;;22.04;51.47;100371.67;105611;1284;20978;-58
2022/10/22 03:30:06;;;;;;;;;6.00;5.00;;;;;22.03;51.54;100375.52;105598;1289;22191;-56
2022/10/22 03:32:34;;;;;;;;;6.00;6.00;;;;;22.05;51.54;100383.48;105671;1289;22722;-56
2022/10/22 03:35:01;;;;;;;;;;;;;;;22.04;51.52;100376.29;105602;1291;19866;-58
2022/10/22 03:37:29;;;;;;;;;6.00;6.00;;;;;22.04;51.54;100369.19;105597;1284;22241;-58
2022/10/22 03:39:56;;;;;;;;;5.00;5.00;;;;;22.03;51.39;100361.42;105598;1282;18502;-54
2022/10/22 03:42:23;;;;;;;;;3.00;3.00;;;;;22.03;51.61;100362.34;105599;1297;18489;-57
2022/10/22 03:44:50;;;;;;;;;4.00;4.00;;;;;22.03;51.48;100364.14;105583;1297;19272;-56
2022/10/22 03:47:18;;;;;;;;;5.00;5.00;;;;;22.04;51.61;100357.83;105576;1279;23032;-56
2022/10/22 03:49:45;;;;;;;;;5.00;3.00;;;;;22.03;51.54;100354.23;105587;1283;22122;-57
2022/10/22 03:52:12;;;;;;;;;5.00;5.00;;;;;22.03;51.59;100361.13;105599;1291;20789;-57
2022/10/22 03:54:41;;;;;;;;;5.00;5.00;;;;;22.02;51.67;100363.56;105623;1298;24082;-55
2022/10/22 03:57:08;;;;;;;;;4.00;4.00;;;;;22.03;51.80;100374.23;105576;1289;18853;-54
2022/10/22 03:59:36;;;;;;;;;3.00;3.00;;;;;22.04;51.59;100375.40;105662;1298;20852;-54
2022/10/22 04:02:03;;;;;;;;;6.00;5.00;;;;;22.03;51.59;100374.10;105560;1286;22177;-55
2022/10/22 04:04:30;;;;;;;;;5.00;5.00;;;;;22.03;51.58;100374.53;105584;1291;20340;-53
2022/10/22 04:06:57;;;;;;;;;6.00;5.00;;;;;22.04;51.61;100376.46;105589;1298;22174;-56
2022/10/22 04:09:24;;;;;;;;;5.00;5.00;;;;;22.03;51.56;100376.45;105594;1291;19622;-57
2022/10/22 04:11:52;;;;;;;;;4.00;4.00;;;;;22.02;51.68;100376.53;105636;1291;19807;-56
2022/10/22 04:14:19;;;;;;;;;4.00;3.00;;;;;22.02;51.61;100373.59;105681;1285;19320;-56
2022/10/22 04:16:46;;;;;;;;;4.00;4.00;;;;;22.00;51.66;100371.27;105635;1290;20945;-55
2022/10/22 04:19:13;;;;;;;;;4.00;4.00;;;;;22.00;51.92;100369.64;105576;1291;20075;-54
2022/10/22 04:21:41;;;;;;;;;6.00;5.00;;;;;22.00;51.87;100366.56;105617;1297;20972;-55
2022/10/22 04:24:08;;;;;;;;;4.00;4.00;;;;;22.00;51.97;100365.98;105607;1297;18406;-55
2022/10/22 04:26:35;;;;;;;;;7.00;6.00;;;;;22.02;51.97;100368.46;105681;1297;18789;-56
2022/10/22 04:29:02;;;;;;;;;5.00;5.00;;;;;22.06;52.84;100367.98;105613;1304;19271;-56
2022/10/22 04:31:29;;;;;;;;;4.00;4.00;;;;;22.10;53.79;100362.77;105615;1297;18477;-56
2022/10/22 04:33:57;;;;;;;;;8.00;5.00;;;;;22.14;54.32;100356.86;105494;1297;22211;-55
2022/10/22 04:36:24;;;;;;;;;5.00;5.00;;;;;22.16;56.48;100350.65;105542;1297;19163;-54
2022/10/22 04:38:51;;;;;;;;;3.50;3.50;;;;;22.16;57.37;100342.55;105639;1297;19632;-57
2022/10/22 04:41:18;;;;;;;;;6.00;6.00;;;;;22.16;57.60;100336.21;105624;1275;23863;-55
2022/10/22 04:43:46;;;;;;;;;5.00;5.00;;;;;22.16;57.70;100336.30;105620;1289;21154;-54
2022/10/22 04:46:13;;;;;;;;;7.00;7.00;;;;;22.16;57.73;100332.48;105598;1275;18431;-56
2022/10/22 04:48:40;;;;;;;;;6.00;6.00;;;;;22.16;57.98;100330.04;105623;1291;18514;-57
2022/10/22 04:51:07;;;;;;;;;8.00;7.00;;;;;22.17;58.25;100328.63;105606;1297;19298;-55
2022/10/22 04:53:35;;;;;;;;;6.00;6.00;;;;;22.17;58.14;100327.61;105684;1290;18384;-55
2022/10/22 04:56:02;;;;;;;;;6.00;6.00;;;;;22.18;58.03;100333.84;105620;1292;20063;-54
2022/10/22 04:58:29;;;;;;;;;7.00;7.00;;;;;22.18;58.06;100336.58;105654;1285;19447;-54
2022/10/22 05:00:57;;;;;;;;;7.00;6.00;;;;;22.18;57.68;100340.31;105487;1283;18506;-55
2022/10/22 05:03:24;;;;;;;;;7.50;6.00;;;;;22.18;57.79;100344.21;105565;1297;20165;-53
2022/10/22 05:05:51;;;;;;;;;6.00;6.00;;;;;22.17;57.45;100345.24;105491;1283;21719;-55
2022/10/22 05:08:18;;;;;;;;;9.00;7.00;;;;;22.15;57.07;100351.27;105583;1275;18478;-57
2022/10/22 05:10:45;;;;;;;;;;;;;;;22.15;57.14;100343.68;105530;1282;20495;-56
2022/10/22 05:13:13;;;;;;;;;;;;;;;22.15;57.13;100353.25;105548;1298;19642;-57
2022/10/22 05:15:40;;;;;;;;;6.00;5.00;;;;;22.13;56.92;100352.36;105604;1298;20185;-56
2022/10/22 05:18:07;;;;;;;;;5.00;5.00;;;;;22.14;56.79;100361.02;105460;1289;20226;-54
2022/10/22 05:20:34;;;;;;;;;5.50;5.50;;;;;22.13;56.79;100366.64;105461;1298;22221;-55
2022/10/22 05:23:02;;;;;;;;;3.50;3.50;;;;;22.13;56.78;100370.05;105531;1297;20540;-54
2022/10/22 05:25:29;;;;;;;;;6.00;6.00;;;;;22.12;56.67;100365.08;105491;1290;21121;-53
2022/10/22 05:27:57;;;;;;;;;4.00;4.00;;;;;22.12;56.65;100365.66;105497;1282;19467;-55
2022/10/22 05:30:24;;;;;;;;;6.00;5.00;;;;;22.11;56.49;100360.14;105517;1281;18337;-54
2022/10/22 05:32:51;;;;;;;;;8.00;6.00;;;;;22.12;56.53;100364.19;105506;1282;20188;-54
2022/10/22 05:35:19;;;;;;;;;5.00;5.00;;;;;22.12;56.28;100370.20;105554;1298;20738;-54
2022/10/22 05:37:46;;;;;;;;;5.00;5.00;;;;;22.13;56.35;100375.38;105512;1282;19389;-55
2022/10/22 05:40:13;;;;;;;;;6.00;5.00;;;;;22.12;56.34;100381.77;105531;1282;18588;-54
2022/10/22 05:42:40;;;;;;;;;6.00;6.00;;;;;22.12;56.12;100386.70;105533;1282;20917;-55
2022/10/22 05:45:08;;;;;;;;;;;;;;;22.11;56.11;100389.71;105394;1282;19343;-56
2022/10/22 05:47:35;;;;;;;;;3.00;3.00;;;;;22.11;56.33;100388.11;105705;1289;18342;-55
2022/10/22 05:50:02;;;;;;;;;;;;;;;22.12;56.16;100392.59;105623;1282;21980;-54
2022/10/22 05:52:29;;;;;;;;;;;;;;;22.12;56.19;100388.68;105550;1279;18504;-55
2022/10/22 05:54:57;;;;;;;;;4.00;4.00;;;;;22.13;55.99;100399.86;105608;1279;21469;-54
2022/10/22 05:57:24;;;;;;;;;5.00;5.00;;;;;22.14;56.19;100400.91;105509;1289;21104;-54
2022/10/22 05:59:51;;;;;;;;;3.50;3.00;;;;;22.15;56.01;100401.75;105563;1296;18610;-57
2022/10/22 06:02:18;;;;;;;;;9.00;7.00;;;;;22.14;56.01;100397.77;105538;1301;22733;-56
2022/10/22 06:04:45;;;;;;;;;;;;;;;22.14;56.04;100398.90;105504;1297;20777;-54
2022/10/22 06:07:13;;;;;;;;;5.00;5.00;;;;;22.13;55.97;100396.45;105583;1290;19711;-52
2022/10/22 06:09:40;;;;;;;;;8.00;6.00;;;;;22.12;56.07;100394.86;105559;1291;20266;-55
2022/10/22 06:12:09;;;;;;;;;5.50;5.50;;;;;22.12;56.03;100395.14;105529;1297;19903;-55
2022/10/22 06:14:37;;;;;;;;;3.00;3.00;;;;;22.13;56.06;100393.05;105556;1297;18478;-55
2022/10/22 06:17:04;;;;;;;;;6.00;5.00;;;;;22.14;56.11;100389.45;105523;1298;19975;-55
2022/10/22 06:19:31;;;;;;;;;7.00;6.00;;;;;22.13;55.90;100390.04;105581;1297;19291;-55
2022/10/22 06:21:58;;;;;;;;;6.00;6.00;;;;;22.14;55.66;100389.99;105568;1297;18548;-55
2022/10/22 06:24:25;;;;;;;;;6.00;5.00;;;;;22.14;55.49;100386.85;105514;1282;21717;-55
2022/10/22 06:26:53;;;;;;;;;6.00;6.00;;;;;22.13;55.55;100389.70;105587;1282;19838;-56
2022/10/22 06:29:20;;;;;;;;;5.00;5.00;;;;;22.14;55.72;100392.35;105612;1297;18785;-55
2022/10/22 06:31:47;;;;;;;;;5.00;5.00;;;;;22.16;55.96;100393.58;105506;1275;18514;-56
2022/10/22 06:34:14;;;;;;;;;7.50;5.50;;;;;22.16;56.34;100400.42;105572;1281;21517;-55
2022/10/22 06:36:42;;;;;;;;;6.00;6.00;;;;;22.17;56.58;100409.76;105469;1298;19682;-54
2022/10/22 06:39:09;;;;;;;;;3.00;3.00;;;;;22.17;56.39;100420.03;105491;1289;22649;-55
2022/10/22 06:41:36;;;;;;;;;5.00;5.00;;;;;22.18;56.57;100419.30;105625;1297;19282;-52
2022/10/22 06:44:03;;;;;;;;;5.00;5.00;;;;;22.19;56.56;100419.20;105576;1282;20532;-55
2022/10/22 06:46:31;;;;;;;;;8.00;6.00;;;;;22.22;56.68;100422.23;105560;1289;23157;-55
2022/10/22 06:48:58;;;;;;;;;8.00;5.50;;;;;22.24;56.61;100426.73;105588;1297;20984;-53
2022/10/22 06:51:26;;;;;;;;;6.00;5.50;;;;;22.26;56.61;100428.79;105578;1297;18798;-53
2022/10/22 06:53:53;;;;;;;;;5.00;5.00;;;;;22.28;56.66;100426.08;105638;1297;20154;-56
2022/10/22 06:56:20;;;;;;;;;5.00;5.00;;;;;22.28;56.87;100420.91;105555;1291;20993;-52
2022/10/22 06:58:48;;;;;;;;;5.00;5.00;;;;;22.28;56.73;100417.67;105536;1298;18473;-56
2022/10/22 07:01:15;;;;;;;;;;;;;;;22.28;56.75;100424.73;105551;1288;22829;-55
2022/10/22 07:03:42;;;;;;;;;5.00;5.00;;;;;22.29;56.90;100422.13;105557;1297;20786;-54
2022/10/22 07:06:09;;;;;;;;;6.00;6.00;;;;;22.31;56.93;100429.90;105569;1297;18705;-56
2022/10/22 07:08:36;;;;;;;;;6.00;6.00;;;;;22.32;56.86;100438.10;105590;1298;18831;-56
2022/10/22 07:11:04;;;;;;;;;5.00;5.00;;;;;22.33;56.90;100441.38;105589;1279;22247;-55
2022/10/22 07:13:31;;;;;;;;;6.00;6.00;;;;;22.32;56.90;100448.80;105582;1288;20594;-55
2022/10/22 07:15:58;;;;;;;;;6.00;5.00;;;;;22.32;56.78;100450.33;105598;1290;19999;-53
2022/10/22 07:18:25;;;;;;;;;6.33;5.33;;;;;22.32;56.85;100457.59;105588;1297;19592;-54
2022/10/22 07:20:53;;;;;;;;;8.00;8.00;;;;;22.32;56.92;100463.77;105614;1297;24259;-54
2022/10/22 07:23:20;;;;;;;;;5.00;5.00;;;;;22.32;56.91;100468.52;105625;1300;20189;-52
2022/10/22 07:25:47;;;;;;;;;8.00;6.50;;;;;22.33;56.80;100471.16;105585;1298;19318;-55
2022/10/22 07:28:15;;;;;;;;;6.00;6.00;;;;;22.32;56.75;100472.67;105553;1282;20107;-51
2022/10/22 07:30:42;;;;;;;;;6.00;5.50;;;;;22.33;56.82;100478.80;105546;1275;21608;-53
2022/10/22 07:33:09;;;;;;;;;;;;;;;22.32;56.77;100482.88;105536;1289;21011;-51
2022/10/22 07:35:36;;;;;;;;;7.00;5.00;;;;;22.33;56.70;100483.50;105550;1279;20147;-55
2022/10/22 07:38:04;;;;;;;;;6.00;6.00;;;;;22.32;56.65;100485.56;105505;1275;18764;-55
2022/10/22 07:40:31;;;;;;;;;7.50;5.00;;;;;22.33;56.59;100488.22;105560;1282;19255;-56
2022/10/22 07:42:58;;;;;;;;;6.00;6.00;;;;;22.32;56.74;100481.82;105558;1298;20233;-54
2022/10/22 07:45:25;;;;;;;;;5.00;5.00;;;;;22.31;56.53;100476.98;105582;1297;20056;-52
2022/10/22 07:47:52;;;;;;;;;9.00;7.00;;;;;22.33;56.46;100479.30;105483;1291;27934;-56
2022/10/22 07:50:20;;;;;;;;;6.00;6.00;;;;;22.32;56.32;100473.59;105484;1297;18464;-52
2022/10/22 07:52:47;;;;;;;;;6.00;5.00;;;;;22.31;56.30;100474.13;105369;1272;18052;-54
2022/10/22 07:55:14;;;;;;;;;10.00;10.00;;;;;22.33;56.35;100478.19;105511;1282;19293;-52
2022/10/22 07:57:41;;;;;;;;;102.00;72.00;;;;;22.35;56.41;100483.55;105426;1272;19847;-52
2022/10/22 08:00:09;;;;;;;;;117.00;90.00;;;;;22.32;56.44;100481.91;105408;1278;137855;-53
2022/10/22 08:02:36;;;;;;;;;96.00;67.00;;;;;22.31;56.37;100483.41;105496;1297;19298;-52
2022/10/22 08:05:03;;;;;;;;;80.00;58.33;;;;;22.28;56.33;100493.88;105533;1282;20472;-51
2022/10/22 08:07:30;;;;;;;;;62.00;49.00;;;;;22.27;56.35;100500.63;105476;1275;22705;-52
2022/10/22 08:09:58;;;;;;;;;59.00;45.00;;;;;22.26;56.44;100498.15;105471;1276;21033;-51
2022/10/22 08:12:25;;;;;;;;;57.67;47.00;;;;;22.30;56.35;100492.39;105507;1282;21274;-55
2022/10/22 08:14:52;;;;;;;;;48.50;39.00;;;;;22.33;56.09;100489.69;105524;1282;18573;-54
2022/10/22 08:17:20;;;;;;;;;47.00;34.00;;;;;22.34;56.24;100488.36;105491;1282;22170;-52
2022/10/22 08:19:47;;;;;;;;;36.00;29.50;;;;;22.35;56.10;100477.95;105534;1282;20031;-55
2022/10/22 08:22:14;;;;;;;;;25.00;22.00;;;;;22.37;56.15;100474.20;105480;1289;19883;-55
2022/10/22 08:24:42;;;;;;;;;28.00;23.00;;;;;22.37;56.18;100474.23;105526;1275;19723;-52
2022/10/22 08:27:09;;;;;;;;;32.50;27.00;;;;;22.37;56.47;100472.77;105380;1282;18534;-51
2022/10/22 08:29:36;;;;;;;;;18.50;17.50;;;;;22.35;56.36;100472.65;105586;1275;20110;-52
2022/10/22 08:32:04;;;;;;;;;;;;;;;22.34;56.20;100469.83;105498;1298;19236;-51
2022/10/22 08:34:31;;;;;;;;;18.50;18.50;;;;;22.36;56.34;100478.35;105508;1282;18712;-51
2022/10/22 08:36:58;;;;;;;;;21.00;17.00;;;;;22.35;56.14;100482.28;105510;1291;20081;-54
2022/10/22 08:39:25;;;;;;;;;20.00;17.00;;;;;22.32;55.87;100484.10;105383;1289;21209;-55
2022/10/22 08:41:53;;;;;;;;;13.00;13.00;;;;;22.32;55.99;100484.52;105510;1290;21422;-54
2022/10/22 08:44:20;;;;;;;;;13.00;12.00;;;;;22.31;55.96;100479.55;105549;1297;22319;-51
2022/10/22 08:46:47;;;;;;;;;14.50;12.00;;;;;22.30;55.92;100476.80;105467;1297;20839;-54
2022/10/22 08:49:14;;;;;;;;;14.00;11.00;;;;;22.28;55.97;100476.23;105456;1298;20057;-52
2022/10/22 08:51:41;;;;;;;;;14.00;13.00;;;;;22.28;56.12;100480.05;105348;1297;20190;-54
2022/10/22 08:54:09;;;;;;;;;13.00;10.00;;;;;22.26;55.92;100481.59;105459;1276;20743;-52
2022/10/22 08:56:36;;;;;;;;;17.00;10.00;;;;;22.27;55.91;100486.01;105476;1275;20286;-51
2022/10/22 08:59:03;;;;;;;;;;;;;;;22.25;55.95;100483.56;105524;1281;21344;-52
2022/10/22 09:01:30;;;;;;;;;12.00;12.00;;;;;22.25;55.84;100480.75;105519;1275;19264;-51
2022/10/22 09:03:58;;;;;;;;;9.50;8.00;;;;;22.24;55.89;100479.67;105531;1281;18466;-52
2022/10/22 09:06:25;;;;;;;;;9.50;9.50;;;;;22.24;55.75;100477.20;105520;1282;19724;-55
2022/10/22 09:08:52;;;;;;;;;10.00;9.00;;;;;22.22;55.80;100478.48;105482;1282;21554;-55
2022/10/22 09:11:19;;;;;;;;;10.00;9.00;;;;;22.22;55.86;100481.23;105557;1281;18900;-54
2022/10/22 09:13:47;;;;;;;;;10.00;9.00;;;;;22.22;55.88;100483.93;105463;1298;18764;-52
2022/10/22 09:16:14;;;;;;;;;11.00;9.00;;;;;22.23;55.66;100489.91;105484;1282;20817;-52
2022/10/22 09:18:41;;;;;;;;;13.00;9.00;;;;;22.23;55.66;100483.15;105617;1282;18701;-52
2022/10/22 09:21:09;;;;;;;;;9.00;6.00;;;;;22.22;55.48;100481.75;105439;1281;22750;-52
2022/10/22 09:23:36;;;;;;;;;5.50;5.50;;;;;22.22;55.50;100484.69;105606;1298;19382;-52
2022/10/22 09:26:03;;;;;;;;;6.50;6.50;;;;;22.20;55.47;100484.71;105510;1289;19797;-57
2022/10/22 09:28:30;;;;;;;;;10.00;9.00;;;;;22.20;55.44;100481.85;105487;1281;18542;-55
2022/10/22 09:30:57;;;;;;;;;6.50;6.50;;;;;22.21;55.50;100478.05;105519;1298;22172;-54
2022/10/22 09:33:25;;;;;;;;;9.00;7.00;;;;;22.21;55.38;100477.58;105434;1275;20345;-54
2022/10/22 09:35:52;;;;;;;;;8.00;7.00;;;;;22.20;55.36;100480.52;105541;1298;18473;-52
2022/10/22 09:38:19;;;;;;;;;7.00;6.50;;;;;22.20;55.42;100481.61;105634;1297;19614;-54
2022/10/22 09:40:46;;;;;;;;;7.00;6.00;;;;;22.20;55.40;100485.68;105612;1298;21153;-52
2022/10/22 09:43:14;;;;;;;;;9.50;8.00;;;;;22.19;55.47;100482.73;105599;1282;18913;-53
2022/10/22 09:45:41;;;;;;;;;7.00;7.00;;;;;22.20;55.22;100492.91;105604;1297;21025;-52
2022/10/22 09:48:08;;;;;;;;;5.00;3.00;;;;;22.20;55.25;100499.71;105555;1285;19671;-52
2022/10/22 09:50:35;;;;;;;;;7.00;7.00;;;;;22.19;55.33;100498.37;105609;1291;18628;-51
2022/10/22 09:53:03;;;;;;;;;8.50;6.50;;;;;22.20;55.27;100495.52;105605;1305;20860;-52
2022/10/22 09:55:30;;;;;;;;;10.00;7.00;;;;;22.19;55.38;100493.28;105638;1289;19944;-55
2022/10/22 09:57:57;;;;;;;;;6.00;6.00;;;;;22.19;55.08;100507.16;105613;1297;18464;-53
2022/10/22 10:00:24;;;;;;;;;6.50;6.00;;;;;22.18;55.14;100508.64;105600;1285;21021;-52
2022/10/22 10:02:52;;;;;;;;;9.00;6.00;;;;;22.18;55.01;100511.62;105660;1291;18614;-55
2022/10/22 10:05:19;;;;;;;;;7.00;7.00;;;;;22.18;55.01;100517.80;105566;1298;18707;-52
2022/10/22 10:07:47;;;;;;;;;6.50;6.50;;;;;22.19;55.06;100517.80;105554;1297;21093;-54
2022/10/22 10:10:14;;;;;;;;;10.00;9.00;;;;;22.19;55.07;100520.45;105576;1275;23845;-55
2022/10/22 10:12:41;;;;;;;;;6.00;6.00;;;;;22.18;55.01;100526.36;105504;1282;20183;-53
2022/10/22 10:15:08;;;;;;;;;6.00;6.00;;;;;22.18;55.06;100531.48;105552;1291;19579;-52
2022/10/22 10:17:36;;;;;;;;;9.00;7.00;;;;;22.18;55.07;100531.48;105570;1300;19941;-52
2022/10/22 10:20:03;;;;;;;;;;;;;;;22.18;54.83;100531.48;105586;1297;18498;-55
2022/10/22 10:22:30;;;;;;;;;6.50;6.50;;;;;22.18;55.05;100526.15;105629;1279;20809;-54
2022/10/22 10:24:57;;;;;;;;;;;;;;;22.19;54.87;100523.34;105588;1281;18390;-53
2022/10/22 10:27:25;;;;;;;;;7.00;7.00;;;;;22.18;54.88;100522.36;105621;1281;19997;-52
2022/10/22 10:29:52;;;;;;;;;6.00;6.00;;;;;22.17;54.85;100524.64;105610;1297;19511;-54
2022/10/22 10:32:19;;;;;;;;;6.00;6.00;;;;;22.16;54.88;100519.30;105602;1301;19588;-51
2022/10/22 10:34:46;;;;;;;;;7.50;6.00;;;;;22.17;54.85;100518.86;105581;1297;18502;-55
2022/10/22 10:37:14;;;;;;;;;7.00;6.00;;;;;22.17;55.13;100516.30;105560;1282;19574;-53
2022/10/22 10:39:41;;;;;;;;;7.00;6.00;;;;;22.20;55.31;100511.68;105608;1300;22707;-51
2022/10/22 10:42:08;;;;;;;;;6.50;5.50;;;;;22.23;55.37;100510.02;105576;1297;18710;-53
2022/10/22 10:44:35;;;;;;;;;6.00;5.00;;;;;22.24;55.47;100506.10;105654;1297;20907;-51
2022/10/22 10:47:02;;;;;;;;;5.00;3.00;;;;;22.24;55.48;100503.88;105595;1297;19834;-53
2022/10/22 10:49:30;;;;;;;;;5.00;5.00;;;;;22.25;55.49;100504.94;105578;1289;18820;-54
2022/10/22 10:51:57;;;;;;;;;9.00;7.50;;;;;22.24;55.61;100503.70;105561;1279;21762;-54
2022/10/22 10:54:24;;;;;;;;;7.00;6.00;;;;;22.24;55.57;100503.34;105568;1282;19678;-54
2022/10/22 10:56:51;;;;;;;;;;;;;;;22.24;55.67;100501.48;105633;1297;18816;-51
2022/10/22 10:59:19;;;;;;;;;4.00;4.00;;;;;22.25;55.76;100503.27;105588;1282;21099;-52
2022/10/22 11:01:46;;;;;;;;;7.00;5.00;;;;;22.25;55.66;100509.05;105584;1281;19464;-54
2022/10/22 11:04:13;;;;;;;;;6.00;5.00;;;;;22.25;55.85;100508.89;105581;1297;18703;-55
2022/10/22 11:06:40;;;;;;;;;5.00;5.00;;;;;22.25;55.83;100512.30;105574;1275;21087;-52
2022/10/22 11:09:08;;;;;;;;;5.00;4.00;;;;;22.25;56.04;100509.05;105618;1291;19593;-55
2022/10/22 11:11:35;;;;;;;;;5.00;5.00;;;;;22.25;56.15;100507.08;105594;1289;19968;-52
2022/10/22 11:14:02;;;;;;;;;5.00;5.00;;;;;22.25;56.05;100502.38;105539;1296;21050;-52
2022/10/22 11:16:30;;;;;;;;;5.00;5.00;;;;;22.26;56.10;100501.50;105526;1282;19780;-55
2022/10/22 11:18:57;;;;;;;;;3.00;3.00;;;;;22.27;56.12;100500.92;105540;1275;20573;-51